Chiriaco Summit, California
Current Conditions -  °F | °C
As of 3:04 AM on Thursday 18 Dec 2014 (Local Time) from KTRM Reporting Station
Haze Haze  
Wind Chill: 44°   Ceiling: Unl
Heat Index: 46°   Visibility: 3mi
Dew Point: 45°   Wind: 5mph
Humidity: 96%   Direction: 10°N
Pressure: 30.09"   Gusts: NA
Location:  33.7269°N, 116.236°W
Report Text: KTRM 181104Z AUTO 01004KT 3SM BR CLR 08/07 A3009 RMK AO2 T00780072 TSNO
Loading
Personal Weather Stations






























Interactive Weather Map New forecast layout! Learn more

10-Day Weather Forecast

Advertisements
Track Severe Weather on mobile